Morgantown, Kentucky
Current Conditions -  °F | °C
As of 3:53 PM on Saturday 20 Dec 2014 (Local Time) from KBWG Reporting Station
Clear Clear  
Wind Chill: 42°   Ceiling: Unl
Heat Index: 42°   Visibility: 10mi
Dew Point: 26°   Wind: 3mph
Humidity: 53%   Direction: 330°NNW
Pressure: 30.26"   Gusts: NA
Location:  37.23°N, 86.68°W
Report Text: KBWG 202153Z AUTO 33003KT 10SM CLR 06/M03 A3026 RMK AO2 SLP250 T00561033
Loading
Personal Weather Stations






























Interactive Weather Map New forecast layout! Learn more

10-Day Weather Forecast

Advertisements
Track Severe Weather on mobile